EGXU

RAF Linton-On-Ouse Airport

Linton-On-Ouse, United Kingdom
METAR EGXU 260250Z AUTO 06005KT 9999 // OVC041/// 01/M02 Q1034
Observed Flight Rules
Feb-26 @ 02:50 UTC (32 minutes ago) Visual Flight Rules
Wind Visibility Clouds
60° at 5 knots 10,000+ meters
  • Overcast at 4,100' AGL
Temperatures Readings
Current 1°C / 34°F
Dewpoint -2°C / 28°F
Humidity 81%
Altimeter 30.53" Hg
Pressure 1034 hPa
Elevation 16
METAR EGXU 260250Z AUTO 06005KT 9999 // OVC041/// 01/M02 Q1034
Observed Flight Rules
Feb-26 @ 02:50 UTC
(32 minutes ago)
VFR
Wind Visibility
60° at 5 knots 10,000+ meters
Clouds
  • Overcast at 4,100' AGL
Temperature Dewpoint
1°C / 34°F -2°C / 28°F
Humidity Altimeter Pressure
81% 30.53" Hg 1034 hPa